createdAt,value
2019-03-10T15:45:58.130Z,4.73
2019-03-10T15:48:30.829Z,2.70
2019-03-10T15:51:02.205Z,2.30
2019-03-10T15:53:33.627Z,2.83
2019-03-10T15:56:05.365Z,3.67
2019-03-10T15:58:38.770Z,2.37
2019-03-10T16:01:10.374Z,4.07
2019-03-10T16:03:43.309Z,1.83
2019-03-10T16:06:15.172Z,3.30
2019-03-10T16:08:46.920Z,3.50
2019-03-10T16:11:17.889Z,4.57
2019-03-10T16:13:48.944Z,4.33
2019-03-10T16:16:20.119Z,5.20
2019-03-10T16:18:51.404Z,3.60
2019-03-10T16:21:22.507Z,2.23
2019-03-10T16:23:54.649Z,5.07
2019-03-10T16:26:26.707Z,1.77
2019-03-10T16:28:57.910Z,2.77
2019-03-10T16:31:29.931Z,2.77
2019-03-10T16:34:01.697Z,4.93
2019-03-10T16:36:34.212Z,4.23
2019-03-10T16:39:07.945Z,4.03
2019-03-10T16:41:40.858Z,4.30
2019-03-10T16:44:11.893Z,5.17
2019-03-10T16:46:43.296Z,3.97
2019-03-10T16:49:14.346Z,3.97
2019-03-10T16:51:45.622Z,3.97
2019-03-10T16:54:16.770Z,3.47
2019-03-10T16:56:47.768Z,4.43
2019-03-10T16:59:19.564Z,8.13
2019-03-10T17:01:50.720Z,4.90
2019-03-10T17:04:25.380Z,3.97
2019-03-10T17:06:56.775Z,3.73
2019-03-10T17:09:29.032Z,3.53
2019-03-10T17:12:01.108Z,5.93
2019-03-10T17:14:32.755Z,5.60
2019-03-10T17:17:04.729Z,5.27
2019-03-10T17:19:37.130Z,7.27
2019-03-10T17:22:08.226Z,4.83
2019-03-10T17:24:39.531Z,5.60
2019-03-10T17:27:11.676Z,5.40
2019-03-10T17:29:42.700Z,7.17
2019-03-10T17:32:13.746Z,6.13
2019-03-10T17:34:45.594Z,7.13
2019-03-10T17:37:19.264Z,8.63
2019-03-10T17:39:51.409Z,10.77
2019-03-10T17:42:22.709Z,9.37
2019-03-10T17:44:54.548Z,8.07
2019-03-10T17:47:26.915Z,6.57
2019-03-10T17:49:58.154Z,5.53
2019-03-10T17:52:29.189Z,8.73
2019-03-10T17:55:00.505Z,6.57
2019-03-10T17:57:31.499Z,7.43
2019-03-10T18:00:02.508Z,5.57
2019-03-10T18:02:39.634Z,11.10
2019-03-10T18:05:11.780Z,7.93
2019-03-10T18:07:43.315Z,7.80
2019-03-10T18:10:15.243Z,6.83
2019-03-10T18:12:46.305Z,4.77
2019-03-10T18:15:19.927Z,5.97
2019-03-10T18:17:51.969Z,12.23
2019-03-10T18:20:23.298Z,6.17
2019-03-10T18:22:55.299Z,8.07
2019-03-10T18:25:26.266Z,6.03
2019-03-10T18:27:57.748Z,9.00
2019-03-10T18:30:29.109Z,8.00
2019-03-10T18:33:00.294Z,10.50
2019-03-10T18:35:32.700Z,8.00
2019-03-10T18:38:03.957Z,7.10
2019-03-10T18:40:36.087Z,10.97
2019-03-10T18:43:09.141Z,14.40
2019-03-10T18:45:40.286Z,39.23
2019-03-10T18:48:11.522Z,25.63
2019-03-10T18:50:42.652Z,34.03
2019-03-10T18:53:14.493Z,11.50
2019-03-10T18:55:46.614Z,9.80
2019-03-10T18:58:17.647Z,8.03
2019-03-10T19:00:48.996Z,12.37
2019-03-10T19:03:21.319Z,10.97
2019-03-10T19:05:52.920Z,10.23
2019-03-10T19:08:24.304Z,8.47
2019-03-10T19:10:55.875Z,9.03
2019-03-10T19:13:27.281Z,11.60
2019-03-10T19:15:58.374Z,13.27
2019-03-10T19:18:29.542Z,12.57
2019-03-10T19:21:00.697Z,11.10
2019-03-10T19:23:32.112Z,11.50
2019-03-10T19:26:03.234Z,12.23
2019-03-10T19:28:34.417Z,14.10
2019-03-10T19:31:06.446Z,10.70
2019-03-10T19:33:37.605Z,13.77
2019-03-10T19:36:08.725Z,13.70
2019-03-10T19:38:40.744Z,11.63
2019-03-10T19:41:11.921Z,12.47
2019-03-10T19:43:43.109Z,11.37
2019-03-10T19:46:14.255Z,10.17
2019-03-10T19:48:45.459Z,12.27
2019-03-10T19:51:16.566Z,13.47
2019-03-10T19:53:48.205Z,9.57
2019-03-10T19:56:20.285Z,10.70
2019-03-10T19:58:52.305Z,12.90
2019-03-10T20:01:24.655Z,9.30
2019-03-10T20:03:55.839Z,11.23
2019-03-10T20:06:26.970Z,10.63
2019-03-10T20:09:01.283Z,10.33
2019-03-10T20:11:32.283Z,9.00
2019-03-10T20:14:03.563Z,16.70
2019-03-10T20:16:34.688Z,12.63
2019-03-10T20:19:06.964Z,13.37
2019-03-10T20:21:38.007Z,9.53
2019-03-10T20:24:09.424Z,11.77
2019-03-10T20:26:40.580Z,11.57
2019-03-10T20:29:11.749Z,17.03
2019-03-10T20:31:42.913Z,9.47
2019-03-10T20:34:15.646Z,12.50
2019-03-10T20:36:47.715Z,11.37
2019-03-10T20:39:18.880Z,11.93
2019-03-10T20:41:50.678Z,13.57
2019-03-10T20:44:21.890Z,12.87
2019-03-10T20:46:57.742Z,11.20
2019-03-10T20:49:29.621Z,10.23
2019-03-10T20:52:01.944Z,11.60
2019-03-10T20:54:38.450Z,11.10
2019-03-10T20:57:12.521Z,11.30
2019-03-10T20:59:44.678Z,9.27
2019-03-10T21:02:17.965Z,14.57
2019-03-10T21:04:50.606Z,11.17
2019-03-10T21:07:22.424Z,11.00
2019-03-10T21:09:57.051Z,14.17
2019-03-10T21:12:39.801Z,16.13
2019-03-10T21:15:05.411Z,9.23
2019-03-10T21:17:38.088Z,8.67
2019-03-10T21:20:11.908Z,7.90
2019-03-10T21:22:44.316Z,10.53
2019-03-10T21:25:19.373Z,9.27
2019-03-10T21:27:51.560Z,9.27
2019-03-10T21:30:24.422Z,12.80
2019-03-10T21:35:36.495Z,7.73
2019-03-10T21:38:07.852Z,12.90
2019-03-10T21:40:39.466Z,10.17
2019-03-10T21:43:10.995Z,9.43
2019-03-10T21:45:43.203Z,10.97
2019-03-10T21:48:15.464Z,12.83
2019-03-10T21:50:48.210Z,9.60
2019-03-10T21:53:19.807Z,12.07
2019-03-10T21:55:51.609Z,12.83
2019-03-10T21:58:23.336Z,8.80
2019-03-10T22:00:55.316Z,8.33
2019-03-10T22:03:26.692Z,8.90
2019-03-10T22:05:57.985Z,9.93
2019-03-10T22:08:29.872Z,10.53
2019-03-10T22:11:01.674Z,7.53
2019-03-10T22:13:34.117Z,10.00
2019-03-10T22:16:05.877Z,11.90
2019-03-10T22:18:37.899Z,10.37
2019-03-10T22:21:09.574Z,11.97
2019-03-10T22:23:40.763Z,11.17
2019-03-10T22:26:12.266Z,16.03
2019-03-10T22:28:43.472Z,10.00
2019-03-10T22:31:15.539Z,18.07
2019-03-10T22:33:47.787Z,11.93
2019-03-10T22:36:20.866Z,10.50
2019-03-10T22:38:53.003Z,9.47
2019-03-10T22:41:27.329Z,14.80
2019-03-10T22:43:58.496Z,13.33
2019-03-10T22:46:30.684Z,9.90
2019-03-10T22:49:02.450Z,9.07
2019-03-10T22:51:33.704Z,10.70
2019-03-10T22:54:05.656Z,10.20
2019-03-10T22:56:36.827Z,12.53
2019-03-10T22:59:07.872Z,9.97
2019-03-10T23:01:39.051Z,9.27
2019-03-10T23:04:12.157Z,9.00
2019-03-10T23:06:43.226Z,8.80
2019-03-10T23:09:14.840Z,7.07
2019-03-10T23:11:45.925Z,7.47
2019-03-10T23:14:17.090Z,9.37
2019-03-10T23:16:48.733Z,6.30
2019-03-10T23:19:20.419Z,8.53
2019-03-10T23:21:51.399Z,7.13
2019-03-10T23:24:23.553Z,7.87
2019-03-10T23:26:54.568Z,7.30
2019-03-10T23:29:26.539Z,8.30
2019-03-10T23:31:57.505Z,7.37
2019-03-10T23:34:28.507Z,8.40
2019-03-10T23:37:01.273Z,6.67
2019-03-10T23:39:32.311Z,9.30
2019-03-10T23:42:04.816Z,6.17
2019-03-10T23:44:36.935Z,7.07
2019-03-10T23:47:10.790Z,5.40
2019-03-10T23:49:41.896Z,6.47
2019-03-10T23:52:12.924Z,8.97
2019-03-10T23:54:43.914Z,4.90
2019-03-10T23:57:14.963Z,5.43
2019-03-10T23:59:46.713Z,6.67
